Dubai Ambassador — HOEI — position and weather

sailwx.info

Track history (hours):
 
Tides and Currents Weather Stations Pressure Air Temp Water Temp Dewpoint Dewpoint Depression Visibility Wind Speed Wind Dir Waves Ship Positions

Dubai Ambassador

Last reported at 2017-Dec-09 02:01 UTC. Time now 2018-Jan-18 19:58 UTC.
Position N 01°17' E 103°23'.
Warning: this ship's position is 40 days out of date.

Length 190 m; draft 12.8 m.

Type: Cargo ship. MMSI: 351949000.

Date/timePositionNaut miles runAvg speedWind from/ knotsBaromVisibWave heightAir tempDewpointWater temp
2017-Dec-09 02:01N 01°17' E 103°23'611.7
2017-Dec-09 01:30N 01°14' E 103°28'510.9
2017-Dec-09 01:00N 01°12' E 103°33'510.2
2017-Dec-09 00:30N 01°11' E 103°38'5 9.6
2017-Dec-09 00:01N 01°09' E 103°43'5 9.5
2017-Dec-08 23:30N 01°10' E 103°47'611.2
2017-Dec-08 23:00N 01°13' E 103°53'510.3
2017-Dec-08 22:30N 01°15' E 103°57'4 8.3
2017-Dec-08 22:00N 01°17' E 104°01'0 0.0
2017-Dec-08 11:24N 01°17' E 104°01'0 0.3
2017-Dec-08 10:58N 01°17' E 104°01'1 1.3
2017-Dec-08 10:26N 01°18' E 104°01'0 0.2
2017-Dec-08 09:46N 01°17' E 104°01'0 1.6
2017-Dec-08 09:30N 01°17' E 104°02'1 2.8
2017-Dec-08 09:00N 01°16' E 104°01'0 0.8
2017-Dec-08 08:22N 01°16' E 104°01'  
Track history (hours):
 
Tides and Currents Weather Stations Pressure Air Temp Water Temp Dewpoint Dewpoint Depression Visibility Wind Speed Wind Dir Waves Ship Positions

Dubai Ambassador

Last reported at 2017-Dec-09 02:01 UTC. Time now 2018-Jan-18 19:58 UTC.
Position N 01°17' E 103°23'.
Warning: this ship's position is 40 days out of date.

Length 190 m; draft 12.8 m.

Type: Cargo ship. MMSI: 351949000.

Date/timePositionNaut miles runAvg speedWind from/ knotsBaromVisibWave heightAir tempDewpointWater temp
2017-Dec-09 02:01N 01°17' E 103°23'611.7
2017-Dec-09 01:30N 01°14' E 103°28'510.9
2017-Dec-09 01:00N 01°12' E 103°33'510.2
2017-Dec-09 00:30N 01°11' E 103°38'5 9.6
2017-Dec-09 00:01N 01°09' E 103°43'5 9.5
2017-Dec-08 23:30N 01°10' E 103°47'611.2
2017-Dec-08 23:00N 01°13' E 103°53'510.3
2017-Dec-08 22:30N 01°15' E 103°57'4 8.3
2017-Dec-08 22:00N 01°17' E 104°01'0 0.0
2017-Dec-08 11:24N 01°17' E 104°01'0 0.3
2017-Dec-08 10:58N 01°17' E 104°01'1 1.3
2017-Dec-08 10:26N 01°18' E 104°01'0 0.2
2017-Dec-08 09:46N 01°17' E 104°01'0 1.6
2017-Dec-08 09:30N 01°17' E 104°02'1 2.8
2017-Dec-08 09:00N 01°16' E 104°01'0 0.8
2017-Dec-08 08:22N 01°16' E 104°01'  

Dump ship's entire track history